createdAt,value
2018-03-11T00:01:47.010Z,88.90
2018-03-11T00:04:21.377Z,89.30
2018-03-11T00:06:56.747Z,89.60
2018-03-11T00:09:30.937Z,89.90
2018-03-11T00:12:05.783Z,89.90
2018-03-11T00:14:40.586Z,89.90
2018-03-11T00:17:14.475Z,90.10
2018-03-11T00:19:49.026Z,90.10
2018-03-11T00:22:23.253Z,90.00
2018-03-11T00:24:57.861Z,89.80
2018-03-11T00:27:32.549Z,89.50
2018-03-11T00:30:06.623Z,88.90
2018-03-11T00:32:40.977Z,88.10
2018-03-11T00:35:15.045Z,87.40
2018-03-11T00:37:48.981Z,87.50
2018-03-11T00:40:23.361Z,87.50
2018-03-11T00:42:57.995Z,88.20
2018-03-11T00:45:32.460Z,89.40
2018-03-11T00:48:06.217Z,90.10
2018-03-11T00:50:40.836Z,90.50
2018-03-11T00:53:14.642Z,90.30
2018-03-11T00:55:49.699Z,90.40
2018-03-11T00:58:24.308Z,90.00
2018-03-11T01:00:58.509Z,89.80
2018-03-11T01:03:33.107Z,89.30
2018-03-11T01:06:07.388Z,89.20
2018-03-11T01:08:41.850Z,88.50
2018-03-11T01:11:16.432Z,88.50
2018-03-11T01:13:51.072Z,88.70
2018-03-11T01:16:25.957Z,89.30
2018-03-11T01:19:00.427Z,89.90
2018-03-11T01:21:34.689Z,89.80
2018-03-11T01:24:09.693Z,90.10
2018-03-11T01:26:44.218Z,90.10
2018-03-11T01:29:18.068Z,90.30
2018-03-11T01:31:52.799Z,90.60
2018-03-11T01:34:26.554Z,90.60
2018-03-11T01:37:00.594Z,90.50
2018-03-11T01:39:35.307Z,90.20
2018-03-11T01:42:10.573Z,90.20
2018-03-11T01:44:44.689Z,89.00
2018-03-11T01:47:20.440Z,87.70
2018-03-11T01:49:54.952Z,88.50
2018-03-11T01:52:29.466Z,87.70
2018-03-11T01:55:03.509Z,87.10
2018-03-11T01:57:39.263Z,87.80
2018-03-11T02:00:13.312Z,87.00
2018-03-11T02:02:47.865Z,87.20
2018-03-11T02:05:23.463Z,87.10
2018-03-11T02:07:57.563Z,87.10
2018-03-11T02:10:32.727Z,86.70
2018-03-11T02:13:06.975Z,86.60
2018-03-11T02:15:41.494Z,86.60
2018-03-11T02:18:16.782Z,86.50
2018-03-11T02:20:51.259Z,86.40
2018-03-11T02:23:25.607Z,86.10
2018-03-11T02:25:59.302Z,86.10
2018-03-11T02:28:33.492Z,86.00
2018-03-11T02:31:08.706Z,86.40
2018-03-11T02:33:43.271Z,86.30
2018-03-11T02:36:17.566Z,86.10
2018-03-11T02:38:51.803Z,86.20
2018-03-11T02:41:26.421Z,86.40
2018-03-11T02:44:01.857Z,86.50
2018-03-11T02:46:37.002Z,86.90
2018-03-11T02:49:11.644Z,86.90
2018-03-11T02:51:46.306Z,86.60
2018-03-11T02:54:21.563Z,87.10
2018-03-11T02:56:56.898Z,86.30
2018-03-11T02:59:31.245Z,86.20
2018-03-11T03:02:05.582Z,86.70
2018-03-11T03:04:39.825Z,87.50
2018-03-11T03:07:13.609Z,86.80
2018-03-11T03:09:51.892Z,85.90
2018-03-11T03:12:26.314Z,85.80
2018-03-11T03:15:01.558Z,86.80
2018-03-11T03:17:35.559Z,86.70
2018-03-11T03:20:09.904Z,87.30
2018-03-11T03:22:44.517Z,87.00
2018-03-11T03:25:18.620Z,86.60
2018-03-11T03:27:54.670Z,86.80
2018-03-11T03:30:29.307Z,86.80
2018-03-11T03:33:04.606Z,86.50
2018-03-11T03:35:38.898Z,86.60
2018-03-11T03:38:13.535Z,88.70
2018-03-11T03:40:48.345Z,87.40
2018-03-11T03:43:22.230Z,87.30
2018-03-11T03:45:56.438Z,89.00
2018-03-11T03:48:31.162Z,88.60
2018-03-11T03:51:05.371Z,87.50
2018-03-11T03:53:39.919Z,87.90
2018-03-11T03:56:14.840Z,88.60
2018-03-11T03:58:49.138Z,87.00
2018-03-11T04:01:24.602Z,89.20
2018-03-11T04:03:59.122Z,88.50
2018-03-11T04:06:33.553Z,89.30
2018-03-11T04:09:07.521Z,89.50
2018-03-11T04:11:43.305Z,88.30
2018-03-11T04:14:17.875Z,88.30
2018-03-11T04:16:52.245Z,87.50
2018-03-11T04:19:27.671Z,86.50
2018-03-11T04:22:02.420Z,86.40
2018-03-11T04:24:37.522Z,87.20
2018-03-11T04:27:12.168Z,86.40
2018-03-11T04:29:46.703Z,86.30
2018-03-11T04:32:20.910Z,87.10
2018-03-11T04:34:56.122Z,86.30
2018-03-11T04:37:30.465Z,86.30
2018-03-11T04:40:05.078Z,86.10
2018-03-11T04:42:39.918Z,86.20
2018-03-11T04:45:13.845Z,86.30
2018-03-11T04:47:48.451Z,86.20
2018-03-11T04:50:22.366Z,86.20
2018-03-11T04:52:56.584Z,86.30
2018-03-11T04:55:30.947Z,86.30
2018-03-11T04:58:05.348Z,86.00
2018-03-11T05:00:40.513Z,86.30
2018-03-11T05:03:14.769Z,85.80
2018-03-11T05:05:48.505Z,85.80
2018-03-11T05:08:23.450Z,85.70
2018-03-11T05:10:58.307Z,85.70
2018-03-11T05:13:33.197Z,85.70
2018-03-11T05:16:07.008Z,85.50
2018-03-11T05:18:41.840Z,85.60
2018-03-11T05:21:16.263Z,86.40
2018-03-11T05:23:50.437Z,85.70
2018-03-11T05:26:25.647Z,85.80
2018-03-11T05:29:00.410Z,85.80
2018-03-11T05:31:34.741Z,85.80
2018-03-11T05:34:08.733Z,85.80
2018-03-11T05:36:43.357Z,85.90
2018-03-11T05:39:17.769Z,86.00
2018-03-11T05:41:52.455Z,85.90
2018-03-11T05:44:27.493Z,86.30
2018-03-11T05:47:01.241Z,86.30
2018-03-11T05:49:35.970Z,86.70
2018-03-11T05:52:10.600Z,86.60
2018-03-11T05:54:45.510Z,86.20
2018-03-11T05:57:19.338Z,86.20
2018-03-11T05:59:53.418Z,86.10
2018-03-11T06:02:27.265Z,86.00
2018-03-11T06:05:02.138Z,86.30
2018-03-11T06:07:35.943Z,86.30
2018-03-11T06:10:10.199Z,86.30
2018-03-11T06:12:44.624Z,86.20
2018-03-11T06:15:20.075Z,86.00
2018-03-11T06:17:53.993Z,85.90
2018-03-11T06:20:28.195Z,85.70
2018-03-11T06:23:03.503Z,86.00
2018-03-11T06:25:38.872Z,86.20
2018-03-11T06:28:13.278Z,86.00
2018-03-11T06:30:48.218Z,85.90
2018-03-11T06:33:22.138Z,86.00
2018-03-11T06:35:58.082Z,86.10
2018-03-11T06:38:32.593Z,86.00
2018-03-11T06:41:07.848Z,86.20
2018-03-11T06:43:42.117Z,86.20
2018-03-11T06:46:17.310Z,85.80
2018-03-11T06:48:51.097Z,85.80
2018-03-11T06:51:25.421Z,85.80
2018-03-11T06:53:59.723Z,85.50
2018-03-11T06:56:33.684Z,85.00
2018-03-11T06:59:08.279Z,85.00
2018-03-11T07:01:42.543Z,84.50
2018-03-11T07:04:17.081Z,84.10
2018-03-11T07:06:51.285Z,83.50
2018-03-11T07:09:26.539Z,83.30
2018-03-11T07:12:01.076Z,83.30
2018-03-11T07:14:35.483Z,82.50
2018-03-11T07:17:10.069Z,82.90
2018-03-11T07:19:43.772Z,82.30
2018-03-11T07:22:18.359Z,82.70
2018-03-11T07:24:52.897Z,82.50
2018-03-11T07:27:26.998Z,83.00
2018-03-11T07:30:01.025Z,83.60
2018-03-11T07:32:35.506Z,83.60
2018-03-11T07:35:09.707Z,83.80
2018-03-11T07:37:45.513Z,84.50
2018-03-11T07:40:20.400Z,84.20
2018-03-11T07:42:54.956Z,84.20
2018-03-11T07:45:29.045Z,84.60
2018-03-11T07:48:03.293Z,84.10
2018-03-11T07:50:37.937Z,84.00
2018-03-11T07:53:12.533Z,83.00
2018-03-11T07:55:47.319Z,81.70
2018-03-11T07:58:21.990Z,81.60
2018-03-11T08:00:56.886Z,81.60
2018-03-11T08:03:31.442Z,81.50
2018-03-11T08:06:06.688Z,82.40
2018-03-11T08:08:41.028Z,82.40
2018-03-11T08:11:16.214Z,82.80
2018-03-11T08:13:50.551Z,82.60
2018-03-11T08:16:24.872Z,82.40
2018-03-11T08:18:59.795Z,82.80
2018-03-11T08:21:34.716Z,84.50
2018-03-11T08:24:10.077Z,84.50
2018-03-11T08:26:45.491Z,87.10
2018-03-11T08:29:19.832Z,87.10
2018-03-11T08:31:55.166Z,85.70
2018-03-11T08:34:30.301Z,85.70
2018-03-11T08:37:05.018Z,84.80
2018-03-11T08:39:39.237Z,84.70
2018-03-11T08:42:13.128Z,84.30
2018-03-11T08:44:47.372Z,83.80
2018-03-11T08:47:21.874Z,82.70
2018-03-11T08:49:56.327Z,82.50
2018-03-11T08:52:30.845Z,82.70
2018-03-11T08:55:04.960Z,83.00
2018-03-11T08:57:39.658Z,82.40
2018-03-11T09:00:13.738Z,81.70
2018-03-11T09:02:48.271Z,83.10
2018-03-11T09:05:23.662Z,83.70
2018-03-11T09:07:58.825Z,83.90
2018-03-11T09:10:33.436Z,83.80
2018-03-11T09:13:07.098Z,84.60
2018-03-11T09:15:41.818Z,84.80
2018-03-11T09:18:16.187Z,84.90
2018-03-11T09:20:51.405Z,83.10
2018-03-11T09:23:26.814Z,82.60
2018-03-11T09:26:01.294Z,82.60
2018-03-11T09:28:35.191Z,81.80
2018-03-11T09:31:09.702Z,81.40
2018-03-11T09:33:45.005Z,80.30
2018-03-11T09:36:19.366Z,80.30
2018-03-11T09:38:54.663Z,79.80
2018-03-11T09:41:28.915Z,79.80
2018-03-11T09:44:03.500Z,79.70
2018-03-11T09:46:37.659Z,79.30
2018-03-11T09:49:13.066Z,79.80
2018-03-11T09:51:47.521Z,79.80
2018-03-11T09:54:22.767Z,80.30
2018-03-11T09:56:57.746Z,80.70
2018-03-11T09:59:32.878Z,80.60
2018-03-11T10:02:06.918Z,80.60
2018-03-11T10:04:40.814Z,80.30
2018-03-11T10:07:15.458Z,80.90
2018-03-11T10:09:50.201Z,81.20
2018-03-11T10:12:25.370Z,80.80
2018-03-11T10:14:59.100Z,80.80
2018-03-11T10:17:33.360Z,80.70
2018-03-11T10:20:07.752Z,80.70
2018-03-11T10:22:42.095Z,80.70
2018-03-11T10:25:17.499Z,79.10
2018-03-11T10:27:53.093Z,77.80
2018-03-11T10:30:26.910Z,77.80
2018-03-11T10:33:00.894Z,78.10
2018-03-11T10:35:35.366Z,77.60
2018-03-11T10:38:09.411Z,78.10
2018-03-11T10:40:44.012Z,77.30
2018-03-11T10:43:18.688Z,77.80
2018-03-11T10:45:53.220Z,77.00
2018-03-11T10:48:27.342Z,76.60
2018-03-11T10:51:02.727Z,77.20
2018-03-11T10:53:37.215Z,77.10
2018-03-11T10:56:11.656Z,77.80
2018-03-11T10:58:45.824Z,76.20
2018-03-11T11:01:21.220Z,75.60
2018-03-11T11:04:01.505Z,75.60
2018-03-11T11:06:35.741Z,75.70
2018-03-11T11:09:10.150Z,75.20
2018-03-11T11:11:44.147Z,75.60
2018-03-11T11:14:18.405Z,74.80
2018-03-11T11:16:52.720Z,75.60
2018-03-11T11:19:26.842Z,75.10
2018-03-11T11:22:01.364Z,75.80
2018-03-11T11:24:35.873Z,76.10
2018-03-11T11:27:09.741Z,75.30
2018-03-11T11:29:44.997Z,76.50
2018-03-11T11:32:19.074Z,76.50
2018-03-11T11:34:53.208Z,77.40
2018-03-11T11:37:27.549Z,76.90
2018-03-11T11:40:02.098Z,77.60
2018-03-11T11:42:36.601Z,77.70
2018-03-11T11:45:10.689Z,77.60
2018-03-11T11:47:45.210Z,77.10
2018-03-11T11:50:19.325Z,78.10
2018-03-11T11:52:55.258Z,77.40
2018-03-11T11:55:30.694Z,77.80
2018-03-11T11:58:04.618Z,77.80
2018-03-11T12:00:40.310Z,77.00
2018-03-11T12:03:14.473Z,76.90
2018-03-11T12:05:48.805Z,76.80
2018-03-11T12:08:23.922Z,76.80
2018-03-11T12:10:58.467Z,76.80
2018-03-11T12:13:32.111Z,77.60
2018-03-11T12:16:06.177Z,77.10
2018-03-11T12:18:41.425Z,78.20
2018-03-11T12:21:16.869Z,77.00
2018-03-11T12:23:51.049Z,77.00
2018-03-11T12:26:25.197Z,75.90
2018-03-11T12:29:00.411Z,76.80
2018-03-11T12:31:34.788Z,76.90
2018-03-11T12:34:08.868Z,76.60
2018-03-11T12:36:43.285Z,75.90
2018-03-11T12:39:17.876Z,76.50
2018-03-11T12:41:53.873Z,77.30
2018-03-11T12:44:28.799Z,77.00
2018-03-11T12:47:03.262Z,77.00
2018-03-11T12:49:38.458Z,77.30
2018-03-11T12:52:12.890Z,77.30
2018-03-11T12:54:48.209Z,76.30
2018-03-11T12:57:22.739Z,76.10
2018-03-11T12:59:57.373Z,76.10
2018-03-11T13:02:32.408Z,76.40
2018-03-11T13:05:07.603Z,77.30
2018-03-11T13:07:41.962Z,76.50
2018-03-11T13:10:17.317Z,77.10
2018-03-11T13:12:52.430Z,76.60
2018-03-11T13:15:26.465Z,76.60
2018-03-11T13:18:01.448Z,76.10
2018-03-11T13:20:47.899Z,74.90
2018-03-11T13:23:22.701Z,74.80
2018-03-11T13:25:57.924Z,75.00
2018-03-11T13:28:44.484Z,74.90
2018-03-11T13:31:19.239Z,74.20
2018-03-11T13:34:05.747Z,74.00
2018-03-11T13:36:39.678Z,74.20
2018-03-11T13:39:25.797Z,72.30
2018-03-11T13:41:59.674Z,73.20
2018-03-11T13:44:33.929Z,73.40
2018-03-11T13:47:09.115Z,74.50
2018-03-11T13:49:43.973Z,74.10
2018-03-11T13:52:30.709Z,73.50
2018-03-11T13:55:05.928Z,74.80
2018-03-11T14:00:55.938Z,75.80
2018-03-11T14:03:31.257Z,76.40
2018-03-11T14:06:05.521Z,76.40
2018-03-11T14:08:40.814Z,73.80
2018-03-11T14:11:14.947Z,73.80
2018-03-11T14:13:50.243Z,73.60
2018-03-11T14:16:24.494Z,73.50
2018-03-11T14:18:59.008Z,73.40
2018-03-11T14:21:34.572Z,74.90
2018-03-11T14:24:09.438Z,75.00
2018-03-11T14:26:44.742Z,75.50
2018-03-11T14:29:18.494Z,75.50
2018-03-11T14:31:52.645Z,75.40
2018-03-11T14:34:28.088Z,75.20
2018-03-11T14:37:02.323Z,75.20
2018-03-11T14:39:37.520Z,75.70
2018-03-11T14:42:11.878Z,75.70
2018-03-11T14:44:46.986Z,76.00
2018-03-11T14:47:21.425Z,76.00
2018-03-11T14:49:55.893Z,76.00
2018-03-11T14:52:29.993Z,76.20
2018-03-11T14:55:04.593Z,76.60
2018-03-11T14:57:40.235Z,77.20
2018-03-11T15:00:14.931Z,77.00
2018-03-11T15:02:49.476Z,77.00
2018-03-11T15:05:25.430Z,77.10
2018-03-11T15:08:00.805Z,77.10
2018-03-11T15:10:35.381Z,77.70
2018-03-11T15:13:09.730Z,77.60
2018-03-11T15:15:45.029Z,78.40
2018-03-11T15:18:19.474Z,78.30
2018-03-11T15:20:54.689Z,80.20
2018-03-11T15:23:29.029Z,79.60
2018-03-11T15:26:03.563Z,79.90
2018-03-11T15:28:37.730Z,79.80
2018-03-11T15:31:11.357Z,79.80
2018-03-11T15:33:45.491Z,79.40
2018-03-11T15:36:19.818Z,79.10
2018-03-11T15:38:54.334Z,79.20
2018-03-11T15:41:29.431Z,78.90
2018-03-11T15:44:04.004Z,78.10
2018-03-11T15:46:38.387Z,78.10
2018-03-11T15:49:13.968Z,79.10
2018-03-11T15:51:48.013Z,79.10
2018-03-11T15:54:22.824Z,78.70
2018-03-11T15:56:57.288Z,78.70
2018-03-11T15:59:31.232Z,79.60
2018-03-11T16:02:06.626Z,80.60
2018-03-11T16:04:41.102Z,80.60
2018-03-11T16:07:16.308Z,81.00
2018-03-11T16:09:50.646Z,81.00
2018-03-11T16:12:25.242Z,81.10
2018-03-11T16:14:59.315Z,81.20
2018-03-11T16:17:33.142Z,81.20
2018-03-11T16:20:08.137Z,81.40
2018-03-11T16:22:41.876Z,81.40
2018-03-11T16:25:16.741Z,82.20
2018-03-11T16:27:51.554Z,82.50
2018-03-11T16:30:26.078Z,82.50
2018-03-11T16:33:00.677Z,83.00
2018-03-11T16:35:34.933Z,83.40
2018-03-11T16:38:10.356Z,84.40
2018-03-11T16:40:44.726Z,83.70
2018-03-11T16:43:19.454Z,83.70
2018-03-11T16:45:54.397Z,83.80
2018-03-11T16:48:28.110Z,83.80
2018-03-11T16:51:02.206Z,83.80
2018-03-11T16:53:35.945Z,83.50
2018-03-11T16:56:10.181Z,83.20
2018-03-11T16:58:44.718Z,84.50
2018-03-11T17:01:19.073Z,84.40
2018-03-11T17:03:54.267Z,83.40
2018-03-11T17:06:28.824Z,83.40
2018-03-11T17:09:03.214Z,83.50
2018-03-11T17:11:37.368Z,84.10
2018-03-11T17:14:12.660Z,83.70
2018-03-11T17:16:46.887Z,83.70
2018-03-11T17:19:21.376Z,84.00
2018-03-11T17:21:55.442Z,83.90
2018-03-11T17:24:29.985Z,84.40
2018-03-11T17:27:04.078Z,83.90
2018-03-11T17:29:39.173Z,83.40
2018-03-11T17:32:14.124Z,84.30
2018-03-11T17:34:47.840Z,84.30
2018-03-11T17:37:21.970Z,83.90
2018-03-11T17:39:56.323Z,84.10
2018-03-11T17:42:30.765Z,84.00
2018-03-11T17:45:05.096Z,84.00
2018-03-11T17:47:39.239Z,83.50
2018-03-11T17:50:13.692Z,83.00
2018-03-11T17:52:47.865Z,82.60
2018-03-11T17:55:22.389Z,83.00
2018-03-11T17:57:58.025Z,84.50
2018-03-11T18:00:32.762Z,85.40
2018-03-11T18:03:07.095Z,85.40
2018-03-11T18:05:41.526Z,85.60
2018-03-11T18:08:16.572Z,85.70
2018-03-11T18:10:51.788Z,85.90
2018-03-11T18:13:26.813Z,86.70
2018-03-11T18:16:01.418Z,85.80
2018-03-11T18:18:35.442Z,85.90
2018-03-11T18:21:10.685Z,86.00
2018-03-11T18:23:45.783Z,86.10
2018-03-11T18:26:19.752Z,86.20
2018-03-11T18:28:53.821Z,86.20
2018-03-11T18:31:29.041Z,85.20
2018-03-11T18:34:04.261Z,85.20
2018-03-11T18:36:38.070Z,85.10
2018-03-11T18:39:12.113Z,84.80
2018-03-11T18:41:46.726Z,84.50
2018-03-11T18:44:22.315Z,85.50
2018-03-11T18:46:56.145Z,85.50
2018-03-11T18:49:30.224Z,86.50
2018-03-11T18:52:03.925Z,85.80
2018-03-11T18:54:38.149Z,85.80
2018-03-11T18:57:12.506Z,86.10
2018-03-11T18:59:46.556Z,85.80
2018-03-11T19:02:20.950Z,85.70
2018-03-11T19:04:55.897Z,85.90
2018-03-11T19:07:31.019Z,86.30
2018-03-11T19:10:05.109Z,86.10
2018-03-11T19:12:39.783Z,86.40
2018-03-11T19:15:14.624Z,86.40
2018-03-11T19:17:48.944Z,86.40
2018-03-11T19:20:26.735Z,86.30
2018-03-11T19:23:01.967Z,86.40
2018-03-11T19:25:36.202Z,86.40
2018-03-11T19:28:10.512Z,86.80
2018-03-11T19:30:45.355Z,87.00
2018-03-11T19:33:19.732Z,87.00
2018-03-11T19:35:54.669Z,87.30
2018-03-11T19:38:29.002Z,87.30
2018-03-11T19:41:04.733Z,86.90
2018-03-11T19:43:38.844Z,86.80
2018-03-11T19:46:15.982Z,86.10
2018-03-11T19:48:50.551Z,85.50
2018-03-11T19:51:25.390Z,85.50
2018-03-11T19:53:59.930Z,86.10
2018-03-11T19:56:35.430Z,85.80
2018-03-11T19:59:09.174Z,85.40
2018-03-11T20:01:43.532Z,85.20
2018-03-11T20:04:18.429Z,85.70
2018-03-11T20:06:53.119Z,85.40
2018-03-11T20:09:27.458Z,85.90
2018-03-11T20:12:01.493Z,85.00
2018-03-11T20:14:36.805Z,86.90
2018-03-11T20:17:11.241Z,86.90
2018-03-11T20:19:45.689Z,87.10
2018-03-11T20:22:19.705Z,87.70
2018-03-11T20:24:54.289Z,87.20
2018-03-11T20:27:28.522Z,86.50
2018-03-11T20:30:04.436Z,86.30
2018-03-11T20:32:39.836Z,86.60
2018-03-11T20:35:14.398Z,86.50
2018-03-11T20:37:48.549Z,86.80
2018-03-11T20:40:22.945Z,87.10
2018-03-11T20:42:58.626Z,86.10
2018-03-11T20:45:34.009Z,86.00
2018-03-11T20:48:08.261Z,85.90
2018-03-11T20:50:43.022Z,85.70
2018-03-11T20:53:17.812Z,85.10
2018-03-11T20:55:52.427Z,85.00
2018-03-11T20:58:27.493Z,85.60
2018-03-11T21:01:02.026Z,85.20
2018-03-11T21:03:36.111Z,85.10
2018-03-11T21:06:10.627Z,85.10
2018-03-11T21:08:45.493Z,85.00
2018-03-11T21:11:19.462Z,84.90
2018-03-11T21:13:54.317Z,84.60
2018-03-11T21:16:29.867Z,84.50
2018-03-11T21:19:04.813Z,84.90
2018-03-11T21:21:40.196Z,85.40
2018-03-11T21:24:15.584Z,84.70
2018-03-11T21:26:50.413Z,84.60
2018-03-11T21:29:25.339Z,84.80
2018-03-11T21:31:59.973Z,84.80
2018-03-11T21:34:34.166Z,84.80
2018-03-11T21:37:08.639Z,84.60
2018-03-11T21:39:42.853Z,84.70
2018-03-11T21:42:20.845Z,84.60
2018-03-11T21:44:55.033Z,84.50
2018-03-11T21:47:30.944Z,84.30
2018-03-11T21:50:05.795Z,84.30
2018-03-11T21:52:40.290Z,84.20
2018-03-11T21:55:14.886Z,84.20
2018-03-11T21:57:49.202Z,84.30
2018-03-11T22:00:23.280Z,84.50
2018-03-11T22:02:57.703Z,84.40
2018-03-11T22:05:31.928Z,84.30
2018-03-11T22:08:07.345Z,84.50
2018-03-11T22:10:41.871Z,84.50
2018-03-11T22:13:16.977Z,84.50
2018-03-11T22:15:51.325Z,84.50
2018-03-11T22:18:26.784Z,84.70
2018-03-11T22:21:00.806Z,84.60
2018-03-11T22:23:35.501Z,85.10
2018-03-11T22:26:10.449Z,85.50
2018-03-11T22:28:45.637Z,85.60
2018-03-11T22:31:20.741Z,85.90
2018-03-11T22:33:54.648Z,85.90
2018-03-11T22:36:28.842Z,85.70
2018-03-11T22:39:03.457Z,85.50
2018-03-11T22:41:37.374Z,86.00
2018-03-11T22:44:11.873Z,86.60
2018-03-11T22:46:46.828Z,87.40
2018-03-11T22:49:21.465Z,86.60
2018-03-11T22:51:55.568Z,86.40
2018-03-11T22:54:30.089Z,86.50
2018-03-11T22:57:04.401Z,86.40
2018-03-11T22:59:38.818Z,86.20
2018-03-11T23:02:13.086Z,86.40
2018-03-11T23:04:47.558Z,86.60
2018-03-11T23:07:22.298Z,87.00
2018-03-11T23:09:55.955Z,86.90
2018-03-11T23:12:30.104Z,87.00
2018-03-11T23:15:04.749Z,86.80
2018-03-11T23:17:38.839Z,87.70
2018-03-11T23:20:14.030Z,88.50
2018-03-11T23:22:49.161Z,88.00
2018-03-11T23:25:23.036Z,87.90
2018-03-11T23:27:57.323Z,88.60
2018-03-11T23:30:34.705Z,89.90
2018-03-11T23:33:09.866Z,90.00
2018-03-11T23:35:44.515Z,90.00
2018-03-11T23:38:18.606Z,90.00
2018-03-11T23:40:53.226Z,89.80
2018-03-11T23:43:28.149Z,88.90
2018-03-11T23:46:02.084Z,88.50
2018-03-11T23:48:36.597Z,89.60
2018-03-11T23:51:10.609Z,90.10
2018-03-11T23:53:44.914Z,90.20
2018-03-11T23:56:19.305Z,90.10
2018-03-11T23:58:54.182Z,90.40
